sensor_id;sensor_type;location;lat;lon;timestamp;P1;durP1;ratioP1;P2;durP2;ratioP2
41921;SDS011;27609;51.002;5.354;2023-05-07T00:01:15;7.05;;;4.22;;
41921;SDS011;27609;51.002;5.354;2023-05-07T00:03:41;6.50;;;4.55;;
41921;SDS011;27609;51.002;5.354;2023-05-07T00:06:06;9.50;;;5.30;;
41921;SDS011;27609;51.002;5.354;2023-05-07T00:08:32;5.63;;;5.07;;
41921;SDS011;27609;51.002;5.354;2023-05-07T00:10:58;8.43;;;5.47;;
41921;SDS011;27609;51.002;5.354;2023-05-07T00:13:23;6.55;;;4.40;;
41921;SDS011;27609;51.002;5.354;2023-05-07T00:15:49;5.43;;;4.60;;
41921;SDS011;27609;51.002;5.354;2023-05-07T00:18:15;7.43;;;4.60;;
41921;SDS011;27609;51.002;5.354;2023-05-07T00:20:40;5.95;;;4.63;;
41921;SDS011;27609;51.002;5.354;2023-05-07T00:23:06;6.03;;;4.78;;
41921;SDS011;27609;51.002;5.354;2023-05-07T00:25:32;4.80;;;4.25;;
41921;SDS011;27609;51.002;5.354;2023-05-07T00:27:57;6.68;;;4.97;;
41921;SDS011;27609;51.002;5.354;2023-05-07T00:30:28;7.05;;;4.75;;
41921;SDS011;27609;51.002;5.354;2023-05-07T00:32:54;4.93;;;4.38;;
41921;SDS011;27609;51.002;5.354;2023-05-07T00:35:20;6.40;;;4.43;;
41921;SDS011;27609;51.002;5.354;2023-05-07T00:37:45;5.40;;;4.60;;
41921;SDS011;27609;51.002;5.354;2023-05-07T00:40:11;6.97;;;5.28;;
41921;SDS011;27609;51.002;5.354;2023-05-07T00:42:37;6.78;;;4.05;;
41921;SDS011;27609;51.002;5.354;2023-05-07T00:45:03;9.98;;;4.65;;
41921;SDS011;27609;51.002;5.354;2023-05-07T00:47:29;6.93;;;4.70;;
41921;SDS011;27609;51.002;5.354;2023-05-07T00:49:55;7.07;;;4.70;;
41921;SDS011;27609;51.002;5.354;2023-05-07T00:52:22;5.32;;;4.45;;
41921;SDS011;27609;51.002;5.354;2023-05-07T00:54:50;6.85;;;4.50;;
41921;SDS011;27609;51.002;5.354;2023-05-07T00:57:17;6.18;;;5.00;;
41921;SDS011;27609;51.002;5.354;2023-05-07T00:59:43;7.30;;;5.32;;
41921;SDS011;27609;51.002;5.354;2023-05-07T01:02:09;9.30;;;5.93;;
41921;SDS011;27609;51.002;5.354;2023-05-07T01:04:36;6.85;;;6.15;;
41921;SDS011;27609;51.002;5.354;2023-05-07T01:07:01;6.88;;;5.38;;
41921;SDS011;27609;51.002;5.354;2023-05-07T01:09:28;8.48;;;5.32;;
41921;SDS011;27609;51.002;5.354;2023-05-07T01:11:54;8.30;;;6.18;;
41921;SDS011;27609;51.002;5.354;2023-05-07T01:14:22;9.90;;;6.15;;
41921;SDS011;27609;51.002;5.354;2023-05-07T01:16:48;6.88;;;6.18;;
41921;SDS011;27609;51.002;5.354;2023-05-07T01:19:16;7.95;;;6.22;;
41921;SDS011;27609;51.002;5.354;2023-05-07T01:21:44;9.20;;;6.32;;
41921;SDS011;27609;51.002;5.354;2023-05-07T01:24:12;7.38;;;5.90;;
41921;SDS011;27609;51.002;5.354;2023-05-07T01:26:38;13.40;;;6.25;;
41921;SDS011;27609;51.002;5.354;2023-05-07T01:29:04;11.23;;;6.82;;
41921;SDS011;27609;51.002;5.354;2023-05-07T01:31:30;8.30;;;6.18;;
41921;SDS011;27609;51.002;5.354;2023-05-07T01:33:58;12.40;;;6.88;;
41921;SDS011;27609;51.002;5.354;2023-05-07T01:36:25;6.75;;;6.07;;
41921;SDS011;27609;51.002;5.354;2023-05-07T01:38:54;9.35;;;6.75;;
41921;SDS011;27609;51.002;5.354;2023-05-07T01:41:22;10.13;;;6.63;;
41921;SDS011;27609;51.002;5.354;2023-05-07T01:43:48;7.93;;;6.93;;
41921;SDS011;27609;51.002;5.354;2023-05-07T01:46:16;12.30;;;6.50;;
41921;SDS011;27609;51.002;5.354;2023-05-07T01:48:43;7.88;;;6.63;;
41921;SDS011;27609;51.002;5.354;2023-05-07T01:51:11;14.20;;;7.55;;
41921;SDS011;27609;51.002;5.354;2023-05-07T01:53:38;9.45;;;7.28;;
41921;SDS011;27609;51.002;5.354;2023-05-07T01:56:03;11.65;;;7.32;;
41921;SDS011;27609;51.002;5.354;2023-05-07T01:58:30;9.88;;;7.50;;
41921;SDS011;27609;51.002;5.354;2023-05-07T02:00:55;7.45;;;6.68;;
41921;SDS011;27609;51.002;5.354;2023-05-07T02:03:21;9.20;;;7.28;;
41921;SDS011;27609;51.002;5.354;2023-05-07T02:05:47;9.23;;;7.93;;
41921;SDS011;27609;51.002;5.354;2023-05-07T02:08:12;10.23;;;8.23;;
41921;SDS011;27609;51.002;5.354;2023-05-07T02:10:38;8.88;;;7.32;;
41921;SDS011;27609;51.002;5.354;2023-05-07T02:13:04;8.60;;;7.70;;
41921;SDS011;27609;51.002;5.354;2023-05-07T02:15:30;11.05;;;6.97;;
41921;SDS011;27609;51.002;5.354;2023-05-07T02:17:59;10.13;;;6.88;;
41921;SDS011;27609;51.002;5.354;2023-05-07T02:20:27;9.70;;;7.13;;
41921;SDS011;27609;51.002;5.354;2023-05-07T02:22:53;7.70;;;6.70;;
41921;SDS011;27609;51.002;5.354;2023-05-07T02:25:19;10.20;;;7.10;;
41921;SDS011;27609;51.002;5.354;2023-05-07T02:27:44;9.32;;;6.75;;
41921;SDS011;27609;51.002;5.354;2023-05-07T02:30:10;9.00;;;6.88;;
41921;SDS011;27609;51.002;5.354;2023-05-07T02:32:36;10.15;;;7.07;;
41921;SDS011;27609;51.002;5.354;2023-05-07T02:35:01;12.20;;;7.22;;
41921;SDS011;27609;51.002;5.354;2023-05-07T02:37:27;10.35;;;6.95;;
41921;SDS011;27609;51.002;5.354;2023-05-07T02:39:53;8.30;;;7.13;;
41921;SDS011;27609;51.002;5.354;2023-05-07T02:42:18;9.13;;;6.97;;
41921;SDS011;27609;51.002;5.354;2023-05-07T02:44:44;8.73;;;6.93;;
41921;SDS011;27609;51.002;5.354;2023-05-07T02:47:10;10.50;;;6.70;;
41921;SDS011;27609;51.002;5.354;2023-05-07T02:49:37;8.07;;;7.15;;
41921;SDS011;27609;51.002;5.354;2023-05-07T02:52:04;12.80;;;7.10;;
41921;SDS011;27609;51.002;5.354;2023-05-07T02:54:29;8.13;;;6.55;;
41921;SDS011;27609;51.002;5.354;2023-05-07T02:56:55;8.30;;;6.40;;
41921;SDS011;27609;51.002;5.354;2023-05-07T02:59:21;9.73;;;6.60;;
41921;SDS011;27609;51.002;5.354;2023-05-07T03:01:47;10.55;;;7.50;;
41921;SDS011;27609;51.002;5.354;2023-05-07T03:04:13;11.52;;;7.15;;
41921;SDS011;27609;51.002;5.354;2023-05-07T03:06:38;10.00;;;6.85;;
41921;SDS011;27609;51.002;5.354;2023-05-07T03:09:04;8.40;;;7.22;;
41921;SDS011;27609;51.002;5.354;2023-05-07T03:11:30;9.90;;;7.35;;
41921;SDS011;27609;51.002;5.354;2023-05-07T03:13:56;10.38;;;6.95;;
41921;SDS011;27609;51.002;5.354;2023-05-07T03:16:21;9.30;;;7.60;;
41921;SDS011;27609;51.002;5.354;2023-05-07T03:18:47;12.95;;;7.00;;
41921;SDS011;27609;51.002;5.354;2023-05-07T03:21:12;8.85;;;6.43;;
41921;SDS011;27609;51.002;5.354;2023-05-07T03:23:38;8.43;;;7.35;;
41921;SDS011;27609;51.002;5.354;2023-05-07T03:26:04;11.00;;;6.85;;
41921;SDS011;27609;51.002;5.354;2023-05-07T03:28:30;9.63;;;7.50;;
41921;SDS011;27609;51.002;5.354;2023-05-07T03:30:55;8.80;;;6.68;;
41921;SDS011;27609;51.002;5.354;2023-05-07T03:33:21;12.10;;;7.15;;
41921;SDS011;27609;51.002;5.354;2023-05-07T03:35:47;9.10;;;6.93;;
41921;SDS011;27609;51.002;5.354;2023-05-07T03:38:12;10.10;;;7.32;;
41921;SDS011;27609;51.002;5.354;2023-05-07T03:40:38;8.10;;;7.28;;
41921;SDS011;27609;51.002;5.354;2023-05-07T03:43:04;8.60;;;7.30;;
41921;SDS011;27609;51.002;5.354;2023-05-07T03:45:30;11.00;;;7.40;;
41921;SDS011;27609;51.002;5.354;2023-05-07T03:47:55;8.80;;;7.20;;
41921;SDS011;27609;51.002;5.354;2023-05-07T03:50:21;9.15;;;6.93;;
41921;SDS011;27609;51.002;5.354;2023-05-07T03:52:47;13.02;;;7.75;;
41921;SDS011;27609;51.002;5.354;2023-05-07T03:55:12;10.15;;;7.45;;
41921;SDS011;27609;51.002;5.354;2023-05-07T03:57:38;11.02;;;6.68;;
41921;SDS011;27609;51.002;5.354;2023-05-07T04:00:03;10.55;;;7.43;;
41921;SDS011;27609;51.002;5.354;2023-05-07T04:02:31;9.57;;;7.03;;
41921;SDS011;27609;51.002;5.354;2023-05-07T04:04:58;8.48;;;7.15;;
41921;SDS011;27609;51.002;5.354;2023-05-07T04:07:23;8.52;;;6.70;;
41921;SDS011;27609;51.002;5.354;2023-05-07T04:09:49;10.20;;;7.05;;
41921;SDS011;27609;51.002;5.354;2023-05-07T04:12:15;9.63;;;6.60;;
41921;SDS011;27609;51.002;5.354;2023-05-07T04:14:40;11.32;;;6.55;;
41921;SDS011;27609;51.002;5.354;2023-05-07T04:17:06;9.85;;;7.13;;
41921;SDS011;27609;51.002;5.354;2023-05-07T04:19:34;8.75;;;7.72;;
41921;SDS011;27609;51.002;5.354;2023-05-07T04:22:00;9.70;;;7.43;;
41921;SDS011;27609;51.002;5.354;2023-05-07T04:24:26;8.57;;;6.57;;
41921;SDS011;27609;51.002;5.354;2023-05-07T04:26:51;11.98;;;6.82;;
41921;SDS011;27609;51.002;5.354;2023-05-07T04:29:17;10.40;;;6.65;;
41921;SDS011;27609;51.002;5.354;2023-05-07T04:31:43;9.02;;;6.50;;
41921;SDS011;27609;51.002;5.354;2023-05-07T04:34:10;10.88;;;7.00;;
41921;SDS011;27609;51.002;5.354;2023-05-07T04:36:37;11.75;;;7.60;;
41921;SDS011;27609;51.002;5.354;2023-05-07T04:39:03;8.07;;;6.88;;
41921;SDS011;27609;51.002;5.354;2023-05-07T04:41:29;12.63;;;6.82;;
41921;SDS011;27609;51.002;5.354;2023-05-07T04:43:55;9.40;;;7.07;;
41921;SDS011;27609;51.002;5.354;2023-05-07T04:46:21;8.85;;;7.28;;
41921;SDS011;27609;51.002;5.354;2023-05-07T04:48:48;8.82;;;7.95;;
41921;SDS011;27609;51.002;5.354;2023-05-07T04:51:14;9.52;;;7.00;;
41921;SDS011;27609;51.002;5.354;2023-05-07T04:53:40;7.72;;;6.75;;
41921;SDS011;27609;51.002;5.354;2023-05-07T04:56:06;8.63;;;6.75;;
41921;SDS011;27609;51.002;5.354;2023-05-07T04:58:31;7.50;;;6.70;;
41921;SDS011;27609;51.002;5.354;2023-05-07T05:00:58;9.57;;;7.70;;
41921;SDS011;27609;51.002;5.354;2023-05-07T05:03:24;11.07;;;6.95;;
41921;SDS011;27609;51.002;5.354;2023-05-07T05:05:50;8.52;;;7.43;;
41921;SDS011;27609;51.002;5.354;2023-05-07T05:08:17;10.80;;;6.45;;
41921;SDS011;27609;51.002;5.354;2023-05-07T05:10:42;10.35;;;7.57;;
41921;SDS011;27609;51.002;5.354;2023-05-07T05:13:08;10.07;;;7.78;;
41921;SDS011;27609;51.002;5.354;2023-05-07T05:15:34;9.80;;;8.60;;
41921;SDS011;27609;51.002;5.354;2023-05-07T05:18:00;9.88;;;7.15;;
41921;SDS011;27609;51.002;5.354;2023-05-07T05:20:26;10.00;;;8.20;;
41921;SDS011;27609;51.002;5.354;2023-05-07T05:22:52;7.97;;;7.10;;
41921;SDS011;27609;51.002;5.354;2023-05-07T05:25:17;11.23;;;7.65;;
41921;SDS011;27609;51.002;5.354;2023-05-07T05:27:43;10.38;;;7.85;;
41921;SDS011;27609;51.002;5.354;2023-05-07T05:30:09;7.93;;;6.90;;
41921;SDS011;27609;51.002;5.354;2023-05-07T05:32:35;9.40;;;7.47;;
41921;SDS011;27609;51.002;5.354;2023-05-07T05:35:00;9.40;;;7.07;;
41921;SDS011;27609;51.002;5.354;2023-05-07T05:37:26;8.23;;;7.25;;
41921;SDS011;27609;51.002;5.354;2023-05-07T05:39:52;11.00;;;8.00;;
41921;SDS011;27609;51.002;5.354;2023-05-07T05:42:19;8.00;;;6.50;;
41921;SDS011;27609;51.002;5.354;2023-05-07T05:44:45;9.68;;;6.30;;
41921;SDS011;27609;51.002;5.354;2023-05-07T05:47:11;8.98;;;6.88;;
41921;SDS011;27609;51.002;5.354;2023-05-07T05:49:36;10.05;;;7.07;;
41921;SDS011;27609;51.002;5.354;2023-05-07T05:52:02;8.30;;;6.53;;
41921;SDS011;27609;51.002;5.354;2023-05-07T05:54:28;8.27;;;5.65;;
41921;SDS011;27609;51.002;5.354;2023-05-07T05:56:53;10.02;;;6.28;;
41921;SDS011;27609;51.002;5.354;2023-05-07T05:59:19;7.38;;;5.65;;
41921;SDS011;27609;51.002;5.354;2023-05-07T06:01:45;8.10;;;5.95;;
41921;SDS011;27609;51.002;5.354;2023-05-07T06:04:11;13.65;;;6.20;;
41921;SDS011;27609;51.002;5.354;2023-05-07T06:06:37;9.50;;;6.75;;
41921;SDS011;27609;51.002;5.354;2023-05-07T06:09:02;12.15;;;6.53;;
41921;SDS011;27609;51.002;5.354;2023-05-07T06:11:28;7.97;;;6.43;;
41921;SDS011;27609;51.002;5.354;2023-05-07T06:13:54;8.07;;;6.75;;
41921;SDS011;27609;51.002;5.354;2023-05-07T06:16:20;9.52;;;6.57;;
41921;SDS011;27609;51.002;5.354;2023-05-07T06:18:45;12.02;;;6.40;;
41921;SDS011;27609;51.002;5.354;2023-05-07T06:21:11;10.73;;;6.93;;
41921;SDS011;27609;51.002;5.354;2023-05-07T06:23:38;11.60;;;6.85;;
41921;SDS011;27609;51.002;5.354;2023-05-07T06:26:05;11.00;;;7.15;;
41921;SDS011;27609;51.002;5.354;2023-05-07T06:28:31;9.98;;;6.70;;
41921;SDS011;27609;51.002;5.354;2023-05-07T06:33:39;9.07;;;6.43;;
41921;SDS011;27609;51.002;5.354;2023-05-07T06:36:05;7.85;;;6.00;;
41921;SDS011;27609;51.002;5.354;2023-05-07T06:38:31;6.78;;;6.07;;
41921;SDS011;27609;51.002;5.354;2023-05-07T06:40:56;8.60;;;5.90;;
41921;SDS011;27609;51.002;5.354;2023-05-07T06:43:22;10.82;;;6.15;;
41921;SDS011;27609;51.002;5.354;2023-05-07T06:45:48;8.02;;;5.40;;
41921;SDS011;27609;51.002;5.354;2023-05-07T06:48:13;9.60;;;5.50;;
41921;SDS011;27609;51.002;5.354;2023-05-07T06:50:39;8.07;;;5.07;;
41921;SDS011;27609;51.002;5.354;2023-05-07T06:53:06;5.82;;;5.22;;
41921;SDS011;27609;51.002;5.354;2023-05-07T06:55:32;6.30;;;5.47;;
41921;SDS011;27609;51.002;5.354;2023-05-07T06:57:57;9.63;;;5.63;;
41921;SDS011;27609;51.002;5.354;2023-05-07T07:00:26;6.45;;;4.97;;
41921;SDS011;27609;51.002;5.354;2023-05-07T07:02:52;10.05;;;5.53;;
41921;SDS011;27609;51.002;5.354;2023-05-07T07:05:18;7.43;;;5.40;;
41921;SDS011;27609;51.002;5.354;2023-05-07T07:07:44;8.15;;;5.20;;
41921;SDS011;27609;51.002;5.354;2023-05-07T07:10:10;9.32;;;6.20;;
41921;SDS011;27609;51.002;5.354;2023-05-07T07:12:35;7.57;;;4.63;;
41921;SDS011;27609;51.002;5.354;2023-05-07T07:15:01;7.78;;;5.10;;
41921;SDS011;27609;51.002;5.354;2023-05-07T07:17:27;6.78;;;5.00;;
41921;SDS011;27609;51.002;5.354;2023-05-07T07:19:53;4.80;;;4.32;;
41921;SDS011;27609;51.002;5.354;2023-05-07T07:22:19;5.70;;;4.57;;
41921;SDS011;27609;51.002;5.354;2023-05-07T07:24:44;11.80;;;4.78;;
41921;SDS011;27609;51.002;5.354;2023-05-07T07:27:10;6.28;;;4.65;;
41921;SDS011;27609;51.002;5.354;2023-05-07T07:29:36;6.38;;;4.18;;
41921;SDS011;27609;51.002;5.354;2023-05-07T07:32:01;4.97;;;3.95;;
41921;SDS011;27609;51.002;5.354;2023-05-07T07:34:27;7.18;;;3.80;;
41921;SDS011;27609;51.002;5.354;2023-05-07T07:36:52;6.88;;;4.03;;
41921;SDS011;27609;51.002;5.354;2023-05-07T07:39:18;8.57;;;4.10;;
41921;SDS011;27609;51.002;5.354;2023-05-07T07:41:44;7.45;;;3.72;;
41921;SDS011;27609;51.002;5.354;2023-05-07T07:44:09;4.18;;;3.70;;
41921;SDS011;27609;51.002;5.354;2023-05-07T07:46:37;4.65;;;3.47;;
41921;SDS011;27609;51.002;5.354;2023-05-07T07:49:03;8.90;;;3.92;;
41921;SDS011;27609;51.002;5.354;2023-05-07T07:51:29;5.90;;;4.07;;
41921;SDS011;27609;51.002;5.354;2023-05-07T07:53:55;6.43;;;4.00;;
41921;SDS011;27609;51.002;5.354;2023-05-07T07:56:22;5.70;;;3.58;;
41921;SDS011;27609;51.002;5.354;2023-05-07T07:58:48;8.63;;;4.60;;
41921;SDS011;27609;51.002;5.354;2023-05-07T08:01:14;6.63;;;4.28;;
41921;SDS011;27609;51.002;5.354;2023-05-07T08:03:41;7.60;;;3.90;;
41921;SDS011;27609;51.002;5.354;2023-05-07T08:06:07;7.90;;;4.00;;
41921;SDS011;27609;51.002;5.354;2023-05-07T08:08:32;8.50;;;3.53;;
41921;SDS011;27609;51.002;5.354;2023-05-07T08:10:58;5.57;;;4.07;;
41921;SDS011;27609;51.002;5.354;2023-05-07T08:13:24;8.15;;;3.65;;
41921;SDS011;27609;51.002;5.354;2023-05-07T08:15:49;4.15;;;3.22;;
41921;SDS011;27609;51.002;5.354;2023-05-07T08:18:15;7.40;;;3.80;;
41921;SDS011;27609;51.002;5.354;2023-05-07T08:20:41;5.95;;;4.35;;
41921;SDS011;27609;51.002;5.354;2023-05-07T08:23:07;5.32;;;3.42;;
41921;SDS011;27609;51.002;5.354;2023-05-07T08:25:33;4.63;;;3.58;;
41921;SDS011;27609;51.002;5.354;2023-05-07T08:28:00;5.47;;;3.42;;
41921;SDS011;27609;51.002;5.354;2023-05-07T08:30:26;3.80;;;3.20;;
41921;SDS011;27609;51.002;5.354;2023-05-07T08:32:51;5.18;;;3.40;;
41921;SDS011;27609;51.002;5.354;2023-05-07T08:35:17;4.18;;;3.00;;
41921;SDS011;27609;51.002;5.354;2023-05-07T08:37:43;7.00;;;3.63;;
41921;SDS011;27609;51.002;5.354;2023-05-07T08:40:09;6.43;;;3.25;;
41921;SDS011;27609;51.002;5.354;2023-05-07T08:42:35;6.22;;;3.08;;
41921;SDS011;27609;51.002;5.354;2023-05-07T08:45:04;6.05;;;3.00;;
41921;SDS011;27609;51.002;5.354;2023-05-07T08:47:39;5.43;;;2.97;;
41921;SDS011;27609;51.002;5.354;2023-05-07T08:50:09;9.90;;;3.75;;
41921;SDS011;27609;51.002;5.354;2023-05-07T08:52:35;4.95;;;2.78;;
41921;SDS011;27609;51.002;5.354;2023-05-07T08:55:02;4.65;;;2.67;;
41921;SDS011;27609;51.002;5.354;2023-05-07T08:57:28;7.22;;;3.35;;
41921;SDS011;27609;51.002;5.354;2023-05-07T08:59:54;3.95;;;3.10;;
41921;SDS011;27609;51.002;5.354;2023-05-07T09:02:20;8.00;;;3.30;;
41921;SDS011;27609;51.002;5.354;2023-05-07T09:04:46;4.60;;;3.22;;
41921;SDS011;27609;51.002;5.354;2023-05-07T09:07:11;6.68;;;4.13;;
41921;SDS011;27609;51.002;5.354;2023-05-07T09:09:37;7.03;;;3.88;;
41921;SDS011;27609;51.002;5.354;2023-05-07T09:12:03;6.57;;;3.50;;
41921;SDS011;27609;51.002;5.354;2023-05-07T09:14:29;6.88;;;3.58;;
41921;SDS011;27609;51.002;5.354;2023-05-07T09:16:55;8.73;;;4.25;;
41921;SDS011;27609;51.002;5.354;2023-05-07T09:19:22;5.70;;;3.88;;
41921;SDS011;27609;51.002;5.354;2023-05-07T09:21:49;5.30;;;4.20;;
41921;SDS011;27609;51.002;5.354;2023-05-07T09:24:15;7.85;;;4.60;;
41921;SDS011;27609;51.002;5.354;2023-05-07T09:26:41;3.88;;;3.20;;
41921;SDS011;27609;51.002;5.354;2023-05-07T09:29:07;5.35;;;3.65;;
41921;SDS011;27609;51.002;5.354;2023-05-07T09:31:38;10.68;;;3.67;;
41921;SDS011;27609;51.002;5.354;2023-05-07T09:34:06;4.93;;;3.85;;
41921;SDS011;27609;51.002;5.354;2023-05-07T09:36:33;10.03;;;4.63;;
41921;SDS011;27609;51.002;5.354;2023-05-07T09:39:01;5.22;;;3.85;;
41921;SDS011;27609;51.002;5.354;2023-05-07T09:41:27;8.70;;;4.03;;
41921;SDS011;27609;51.002;5.354;2023-05-07T09:43:56;7.95;;;3.85;;
41921;SDS011;27609;51.002;5.354;2023-05-07T09:46:28;5.82;;;3.20;;
41921;SDS011;27609;51.002;5.354;2023-05-07T09:48:59;5.80;;;4.03;;
41921;SDS011;27609;51.002;5.354;2023-05-07T09:51:39;5.57;;;3.38;;
41921;SDS011;27609;51.002;5.354;2023-05-07T09:54:10;9.10;;;4.25;;
41921;SDS011;27609;51.002;5.354;2023-05-07T09:56:36;10.57;;;4.30;;
41921;SDS011;27609;51.002;5.354;2023-05-07T09:59:06;6.18;;;4.10;;
41921;SDS011;27609;51.002;5.354;2023-05-07T10:01:33;5.80;;;4.05;;
41921;SDS011;27609;51.002;5.354;2023-05-07T10:04:01;6.85;;;4.45;;
41921;SDS011;27609;51.002;5.354;2023-05-07T10:06:28;6.72;;;3.88;;
41921;SDS011;27609;51.002;5.354;2023-05-07T10:08:55;6.85;;;3.92;;
41921;SDS011;27609;51.002;5.354;2023-05-07T10:11:21;10.40;;;4.60;;
41921;SDS011;27609;51.002;5.354;2023-05-07T10:13:48;9.88;;;4.70;;
41921;SDS011;27609;51.002;5.354;2023-05-07T10:16:14;6.75;;;3.72;;
41921;SDS011;27609;51.002;5.354;2023-05-07T10:18:42;4.85;;;3.70;;
41921;SDS011;27609;51.002;5.354;2023-05-07T10:21:16;7.63;;;4.60;;
41921;SDS011;27609;51.002;5.354;2023-05-07T10:23:48;6.03;;;4.18;;
41921;SDS011;27609;51.002;5.354;2023-05-07T10:26:25;9.23;;;5.05;;
41921;SDS011;27609;51.002;5.354;2023-05-07T10:28:55;9.10;;;6.18;;
41921;SDS011;27609;51.002;5.354;2023-05-07T10:34:13;7.38;;;4.50;;
41921;SDS011;27609;51.002;5.354;2023-05-07T10:36:42;7.15;;;4.32;;
41921;SDS011;27609;51.002;5.354;2023-05-07T10:39:09;8.93;;;5.20;;
41921;SDS011;27609;51.002;5.354;2023-05-07T10:41:35;7.95;;;4.88;;
41921;SDS011;27609;51.002;5.354;2023-05-07T10:44:01;9.27;;;5.13;;
41921;SDS011;27609;51.002;5.354;2023-05-07T10:46:28;11.48;;;5.47;;
41921;SDS011;27609;51.002;5.354;2023-05-07T10:51:26;13.25;;;5.43;;
41921;SDS011;27609;51.002;5.354;2023-05-07T10:56:43;10.70;;;5.85;;
41921;SDS011;27609;51.002;5.354;2023-05-07T11:02:04;8.20;;;4.55;;
41921;SDS011;27609;51.002;5.354;2023-05-07T11:04:32;8.63;;;5.68;;
41921;SDS011;27609;51.002;5.354;2023-05-07T11:12:15;11.18;;;6.78;;
41921;SDS011;27609;51.002;5.354;2023-05-07T11:17:07;12.30;;;6.30;;
41921;SDS011;27609;51.002;5.354;2023-05-07T11:19:50;9.88;;;6.35;;
41921;SDS011;27609;51.002;5.354;2023-05-07T11:25:06;11.10;;;5.65;;
41921;SDS011;27609;51.002;5.354;2023-05-07T11:27:32;12.77;;;6.20;;
41921;SDS011;27609;51.002;5.354;2023-05-07T11:29:58;14.05;;;5.57;;
41921;SDS011;27609;51.002;5.354;2023-05-07T11:32:26;9.88;;;5.75;;
41921;SDS011;27609;51.002;5.354;2023-05-07T11:37:23;10.75;;;5.43;;
41921;SDS011;27609;51.002;5.354;2023-05-07T11:39:50;17.40;;;6.55;;
41921;SDS011;27609;51.002;5.354;2023-05-07T11:42:31;11.40;;;5.43;;
41921;SDS011;27609;51.002;5.354;2023-05-07T11:44:58;10.50;;;5.93;;
41921;SDS011;27609;51.002;5.354;2023-05-07T11:47:24;7.72;;;5.60;;
41921;SDS011;27609;51.002;5.354;2023-05-07T11:49:51;13.23;;;6.78;;
41921;SDS011;27609;51.002;5.354;2023-05-07T11:52:18;9.43;;;5.82;;
41921;SDS011;27609;51.002;5.354;2023-05-07T11:54:51;8.68;;;6.00;;
41921;SDS011;27609;51.002;5.354;2023-05-07T11:57:18;11.23;;;5.90;;
41921;SDS011;27609;51.002;5.354;2023-05-07T11:59:44;13.00;;;5.57;;
41921;SDS011;27609;51.002;5.354;2023-05-07T12:02:13;10.98;;;5.55;;
41921;SDS011;27609;51.002;5.354;2023-05-07T12:04:39;9.63;;;5.72;;
41921;SDS011;27609;51.002;5.354;2023-05-07T12:07:05;12.00;;;5.47;;
41921;SDS011;27609;51.002;5.354;2023-05-07T12:09:32;11.30;;;5.68;;
41921;SDS011;27609;51.002;5.354;2023-05-07T12:12:02;8.93;;;4.63;;
41921;SDS011;27609;51.002;5.354;2023-05-07T12:14:29;10.52;;;4.50;;
41921;SDS011;27609;51.002;5.354;2023-05-07T12:16:55;8.13;;;4.70;;
41921;SDS011;27609;51.002;5.354;2023-05-07T12:19:21;9.55;;;4.80;;
41921;SDS011;27609;51.002;5.354;2023-05-07T12:21:47;8.65;;;4.30;;
41921;SDS011;27609;51.002;5.354;2023-05-07T12:24:14;8.98;;;4.90;;
41921;SDS011;27609;51.002;5.354;2023-05-07T12:26:40;10.25;;;4.53;;
41921;SDS011;27609;51.002;5.354;2023-05-07T12:29:06;10.65;;;4.63;;
41921;SDS011;27609;51.002;5.354;2023-05-07T12:31:32;12.40;;;4.70;;
41921;SDS011;27609;51.002;5.354;2023-05-07T12:33:58;8.82;;;4.47;;
41921;SDS011;27609;51.002;5.354;2023-05-07T12:36:23;6.97;;;4.20;;
41921;SDS011;27609;51.002;5.354;2023-05-07T12:38:50;7.60;;;4.50;;
41921;SDS011;27609;51.002;5.354;2023-05-07T12:41:16;9.18;;;4.47;;
41921;SDS011;27609;51.002;5.354;2023-05-07T12:43:46;7.60;;;4.53;;
41921;SDS011;27609;51.002;5.354;2023-05-07T12:46:12;7.30;;;3.95;;
41921;SDS011;27609;51.002;5.354;2023-05-07T12:48:44;10.88;;;5.05;;
41921;SDS011;27609;51.002;5.354;2023-05-07T12:51:11;8.25;;;4.05;;
41921;SDS011;27609;51.002;5.354;2023-05-07T12:53:41;7.13;;;4.15;;
41921;SDS011;27609;51.002;5.354;2023-05-07T12:56:08;6.50;;;4.32;;
41921;SDS011;27609;51.002;5.354;2023-05-07T12:58:34;8.95;;;4.47;;
41921;SDS011;27609;51.002;5.354;2023-05-07T13:01:03;8.38;;;3.88;;
41921;SDS011;27609;51.002;5.354;2023-05-07T13:05:58;5.78;;;3.63;;
41921;SDS011;27609;51.002;5.354;2023-05-07T13:08:28;7.60;;;3.70;;
41921;SDS011;27609;51.002;5.354;2023-05-07T13:10:55;8.85;;;4.57;;
41921;SDS011;27609;51.002;5.354;2023-05-07T13:13:22;7.60;;;3.90;;
41921;SDS011;27609;51.002;5.354;2023-05-07T13:15:47;4.03;;;3.45;;
41921;SDS011;27609;51.002;5.354;2023-05-07T13:18:13;6.78;;;3.22;;
41921;SDS011;27609;51.002;5.354;2023-05-07T13:20:39;6.32;;;2.90;;
41921;SDS011;27609;51.002;5.354;2023-05-07T13:23:05;6.68;;;3.38;;
41921;SDS011;27609;51.002;5.354;2023-05-07T13:25:31;7.03;;;3.17;;
41921;SDS011;27609;51.002;5.354;2023-05-07T13:27:57;8.10;;;3.22;;
41921;SDS011;27609;51.002;5.354;2023-05-07T13:30:22;5.35;;;2.22;;
41921;SDS011;27609;51.002;5.354;2023-05-07T13:32:48;3.75;;;2.17;;
41921;SDS011;27609;51.002;5.354;2023-05-07T13:35:15;5.05;;;2.28;;
41921;SDS011;27609;51.002;5.354;2023-05-07T13:37:41;4.00;;;2.40;;
41921;SDS011;27609;51.002;5.354;2023-05-07T13:40:07;6.15;;;2.75;;
41921;SDS011;27609;51.002;5.354;2023-05-07T13:42:33;5.00;;;2.80;;
41921;SDS011;27609;51.002;5.354;2023-05-07T13:44:59;8.23;;;3.33;;
41921;SDS011;27609;51.002;5.354;2023-05-07T13:47:25;5.78;;;2.20;;
41921;SDS011;27609;51.002;5.354;2023-05-07T13:49:51;9.88;;;2.70;;
41921;SDS011;27609;51.002;5.354;2023-05-07T13:52:17;2.63;;;1.90;;
41921;SDS011;27609;51.002;5.354;2023-05-07T13:54:43;4.70;;;2.42;;
41921;SDS011;27609;51.002;5.354;2023-05-07T13:57:08;7.13;;;2.92;;
41921;SDS011;27609;51.002;5.354;2023-05-07T13:59:34;6.43;;;2.60;;
41921;SDS011;27609;51.002;5.354;2023-05-07T14:02:00;6.30;;;2.90;;
41921;SDS011;27609;51.002;5.354;2023-05-07T14:04:26;4.72;;;2.55;;
41921;SDS011;27609;51.002;5.354;2023-05-07T14:06:51;10.05;;;3.15;;
41921;SDS011;27609;51.002;5.354;2023-05-07T14:09:17;6.80;;;3.42;;
41921;SDS011;27609;51.002;5.354;2023-05-07T14:11:42;6.05;;;2.75;;
41921;SDS011;27609;51.002;5.354;2023-05-07T14:14:08;8.98;;;4.00;;
41921;SDS011;27609;51.002;5.354;2023-05-07T14:16:37;7.43;;;4.05;;
41921;SDS011;27609;51.002;5.354;2023-05-07T14:19:02;8.05;;;3.63;;
41921;SDS011;27609;51.002;5.354;2023-05-07T14:21:28;6.30;;;2.65;;
41921;SDS011;27609;51.002;5.354;2023-05-07T14:23:55;4.03;;;2.22;;
41921;SDS011;27609;51.002;5.354;2023-05-07T14:26:21;4.60;;;2.63;;
41921;SDS011;27609;51.002;5.354;2023-05-07T14:28:48;8.07;;;2.45;;
41921;SDS011;27609;51.002;5.354;2023-05-07T14:31:13;7.85;;;3.17;;
41921;SDS011;27609;51.002;5.354;2023-05-07T14:33:39;6.13;;;2.38;;
41921;SDS011;27609;51.002;5.354;2023-05-07T14:36:05;5.95;;;3.00;;
41921;SDS011;27609;51.002;5.354;2023-05-07T14:38:31;6.60;;;3.30;;
41921;SDS011;27609;51.002;5.354;2023-05-07T14:40:58;6.88;;;3.70;;
41921;SDS011;27609;51.002;5.354;2023-05-07T14:43:23;5.30;;;2.95;;
41921;SDS011;27609;51.002;5.354;2023-05-07T14:45:49;5.88;;;3.13;;
41921;SDS011;27609;51.002;5.354;2023-05-07T14:48:15;5.70;;;2.83;;
41921;SDS011;27609;51.002;5.354;2023-05-07T14:50:41;7.72;;;2.53;;
41921;SDS011;27609;51.002;5.354;2023-05-07T14:53:07;8.82;;;3.15;;
41921;SDS011;27609;51.002;5.354;2023-05-07T14:55:33;7.55;;;3.13;;
41921;SDS011;27609;51.002;5.354;2023-05-07T14:57:59;8.85;;;3.28;;
41921;SDS011;27609;51.002;5.354;2023-05-07T15:00:25;12.75;;;4.45;;
41921;SDS011;27609;51.002;5.354;2023-05-07T15:02:51;7.78;;;3.72;;
41921;SDS011;27609;51.002;5.354;2023-05-07T15:05:17;9.20;;;4.95;;
41921;SDS011;27609;51.002;5.354;2023-05-07T15:07:44;6.28;;;3.88;;
41921;SDS011;27609;51.002;5.354;2023-05-07T15:10:10;6.90;;;3.55;;